createdAt,value
2017-11-21T00:02:00.959Z,36.90
2017-11-21T00:04:28.352Z,36.50
2017-11-21T00:06:55.749Z,35.63
2017-11-21T00:09:23.171Z,33.73
2017-11-21T00:11:50.571Z,35.67
2017-11-21T00:14:17.964Z,35.60
2017-11-21T00:16:45.368Z,38.03
2017-11-21T00:19:12.761Z,35.77
2017-11-21T00:21:40.150Z,37.20
2017-11-21T00:24:07.563Z,35.93
2017-11-21T00:26:34.979Z,36.03
2017-11-21T00:29:02.372Z,36.43
2017-11-21T00:31:29.793Z,35.00
2017-11-21T00:33:57.188Z,35.30
2017-11-21T00:36:24.579Z,35.53
2017-11-21T00:38:51.991Z,37.63
2017-11-21T00:41:19.384Z,36.00
2017-11-21T00:43:46.775Z,37.40
2017-11-21T00:46:14.190Z,35.37
2017-11-21T00:48:41.582Z,34.93
2017-11-21T00:51:08.977Z,36.60
2017-11-21T00:53:36.411Z,35.70
2017-11-21T00:56:03.811Z,33.27
2017-11-21T00:58:31.228Z,36.70
2017-11-21T01:00:58.635Z,35.63
2017-11-21T01:03:26.039Z,36.97
2017-11-21T01:05:53.443Z,37.40
2017-11-21T01:08:20.864Z,37.30
2017-11-21T01:10:48.258Z,37.73
2017-11-21T01:13:15.651Z,38.77
2017-11-21T01:15:43.072Z,37.80
2017-11-21T01:18:10.491Z,38.57
2017-11-21T01:20:37.886Z,36.63
2017-11-21T01:23:05.318Z,37.10
2017-11-21T01:25:32.716Z,33.57
2017-11-21T01:28:00.111Z,34.03
2017-11-21T01:30:27.528Z,35.40
2017-11-21T01:32:54.931Z,35.80
2017-11-21T01:35:22.343Z,38.00
2017-11-21T01:37:49.747Z,41.80
2017-11-21T01:40:17.150Z,38.33
2017-11-21T01:42:44.587Z,37.87
2017-11-21T01:45:12.012Z,41.17
2017-11-21T01:47:39.403Z,39.77
2017-11-21T01:50:06.803Z,39.30
2017-11-21T01:52:34.207Z,37.90
2017-11-21T01:55:01.603Z,37.67
2017-11-21T01:57:29.000Z,37.17
2017-11-21T01:59:56.433Z,37.03
2017-11-21T02:02:23.843Z,41.57
2017-11-21T02:04:51.567Z,35.67
2017-11-21T02:07:18.987Z,39.73
2017-11-21T02:09:46.400Z,39.70
2017-11-21T02:12:13.800Z,38.60
2017-11-21T02:14:41.228Z,37.83
2017-11-21T02:17:08.643Z,38.27
2017-11-21T02:19:36.029Z,34.57
2017-11-21T02:22:03.448Z,34.97
2017-11-21T02:24:30.863Z,36.73
2017-11-21T02:26:58.252Z,36.70
2017-11-21T02:29:25.655Z,38.87
2017-11-21T02:31:53.051Z,37.07
2017-11-21T02:34:20.699Z,36.97
2017-11-21T02:36:48.124Z,39.07
2017-11-21T02:39:15.624Z,38.57
2017-11-21T02:41:43.020Z,39.70
2017-11-21T02:44:10.433Z,40.93
2017-11-21T02:46:37.869Z,42.13
2017-11-21T02:49:05.256Z,42.67
2017-11-21T02:51:32.663Z,42.77
2017-11-21T02:54:00.088Z,42.90
2017-11-21T02:56:27.492Z,43.70
2017-11-21T02:58:54.921Z,42.40
2017-11-21T03:01:22.323Z,43.10
2017-11-21T03:03:49.707Z,42.40
2017-11-21T03:06:17.126Z,42.20
2017-11-21T03:08:44.546Z,40.30
2017-11-21T03:11:11.979Z,42.80
2017-11-21T03:13:39.402Z,42.30
2017-11-21T03:16:06.818Z,43.20
2017-11-21T03:18:34.225Z,42.10
2017-11-21T03:21:13.316Z,43.43
2017-11-21T03:23:52.443Z,43.13
2017-11-21T03:26:22.702Z,41.60
2017-11-21T03:28:50.095Z,41.97
2017-11-21T03:31:17.489Z,43.17
2017-11-21T03:33:44.915Z,41.40
2017-11-21T03:36:12.307Z,41.40
2017-11-21T03:38:39.707Z,42.07
2017-11-21T03:41:07.131Z,39.23
2017-11-21T03:43:34.529Z,44.23
2017-11-21T03:46:01.923Z,38.93
2017-11-21T03:48:29.380Z,41.80
2017-11-21T03:50:56.789Z,38.57
2017-11-21T03:53:24.179Z,37.80
2017-11-21T03:55:51.624Z,38.00
2017-11-21T03:58:19.047Z,36.13
2017-11-21T04:00:54.034Z,36.70
2017-11-21T04:03:21.508Z,36.37
2017-11-21T04:05:48.902Z,34.27
2017-11-21T04:08:16.327Z,36.40
2017-11-21T04:10:43.722Z,35.30
2017-11-21T04:13:11.128Z,36.87
2017-11-21T04:15:38.543Z,35.27
2017-11-21T04:18:05.939Z,35.60
2017-11-21T04:20:33.644Z,33.97
2017-11-21T04:23:01.100Z,34.03
2017-11-21T04:25:28.493Z,34.00
2017-11-21T04:27:55.895Z,36.77
2017-11-21T04:30:23.301Z,35.70
2017-11-21T04:32:50.706Z,38.83
2017-11-21T04:35:18.108Z,37.07
2017-11-21T04:37:45.529Z,36.60
2017-11-21T04:40:12.932Z,36.93
2017-11-21T04:42:40.331Z,35.77
2017-11-21T04:45:07.751Z,34.33
2017-11-21T04:47:35.160Z,36.97
2017-11-21T04:50:02.556Z,37.17
2017-11-21T04:52:29.987Z,37.40
2017-11-21T04:54:57.382Z,33.97
2017-11-21T04:57:24.803Z,35.80
2017-11-21T04:59:52.207Z,38.77
2017-11-21T05:02:19.599Z,35.30
2017-11-21T05:04:47.007Z,36.30
2017-11-21T05:07:14.428Z,36.00
2017-11-21T05:09:41.832Z,33.27
2017-11-21T05:12:09.715Z,35.63
2017-11-21T05:14:37.135Z,34.87
2017-11-21T05:17:04.537Z,34.03
2017-11-21T05:19:33.950Z,36.80
2017-11-21T05:22:01.363Z,33.60
2017-11-21T05:24:28.767Z,33.90
2017-11-21T05:26:56.196Z,34.97
2017-11-21T05:29:23.600Z,33.73
2017-11-21T05:31:51.023Z,34.40
2017-11-21T05:34:18.420Z,32.30
2017-11-21T05:36:45.843Z,31.63
2017-11-21T05:39:13.243Z,30.27
2017-11-21T05:41:40.651Z,32.90
2017-11-21T05:44:08.050Z,29.40
2017-11-21T05:46:35.448Z,31.53
2017-11-21T05:49:02.847Z,31.50
2017-11-21T05:51:34.796Z,32.80
2017-11-21T05:54:02.194Z,30.80
2017-11-21T05:56:29.606Z,33.43
2017-11-21T05:58:57.035Z,33.50
2017-11-21T06:01:24.432Z,32.80
2017-11-21T06:03:51.827Z,34.20
2017-11-21T06:06:19.239Z,34.10
2017-11-21T06:08:46.653Z,34.33
2017-11-21T06:11:14.036Z,31.03
2017-11-21T06:13:41.468Z,33.83
2017-11-21T06:16:08.879Z,32.90
2017-11-21T06:18:36.267Z,30.93
2017-11-21T06:21:03.710Z,31.57
2017-11-21T06:23:31.690Z,30.60
2017-11-21T06:26:00.094Z,29.03
2017-11-21T06:28:27.515Z,30.43
2017-11-21T06:30:54.954Z,29.40
2017-11-21T06:33:22.351Z,31.77
2017-11-21T06:35:49.782Z,31.13
2017-11-21T06:38:17.195Z,29.30
2017-11-21T06:40:44.593Z,28.90
2017-11-21T06:43:12.038Z,24.93
2017-11-21T06:45:39.432Z,25.33
2017-11-21T06:48:06.823Z,25.43
2017-11-21T06:50:34.280Z,24.67
2017-11-21T06:53:01.675Z,24.33
2017-11-21T06:55:29.080Z,24.37
2017-11-21T06:57:56.539Z,24.17
2017-11-21T07:00:23.929Z,24.47
2017-11-21T07:02:51.342Z,23.53
2017-11-21T07:05:18.760Z,23.07
2017-11-21T07:07:46.186Z,21.63
2017-11-21T07:10:13.583Z,21.63
2017-11-21T07:12:40.995Z,21.70
2017-11-21T07:15:08.399Z,18.83
2017-11-21T07:17:35.791Z,20.93
2017-11-21T07:20:03.216Z,20.00
2017-11-21T07:22:30.616Z,22.17
2017-11-21T07:24:58.008Z,21.10
2017-11-21T07:27:25.435Z,21.37
2017-11-21T07:29:52.829Z,21.87
2017-11-21T07:32:20.224Z,22.80
2017-11-21T07:34:47.626Z,22.03
2017-11-21T07:37:15.040Z,20.93
2017-11-21T07:39:42.436Z,20.00
2017-11-21T07:42:09.868Z,20.10
2017-11-21T07:44:37.263Z,18.80
2017-11-21T07:47:04.681Z,17.60
2017-11-21T07:49:32.089Z,18.07
2017-11-21T07:51:59.481Z,16.50
2017-11-21T07:54:26.879Z,16.67
2017-11-21T07:56:54.291Z,15.83
2017-11-21T07:59:21.704Z,15.73
2017-11-21T08:01:49.103Z,16.83
2017-11-21T08:04:16.514Z,15.53
2017-11-21T08:06:43.915Z,15.87
2017-11-21T08:09:11.326Z,15.47
2017-11-21T08:11:38.735Z,16.87
2017-11-21T08:14:06.132Z,16.57
2017-11-21T08:16:33.535Z,15.40
2017-11-21T08:19:00.935Z,15.37
2017-11-21T08:21:28.353Z,14.73
2017-11-21T08:23:55.743Z,16.77
2017-11-21T08:26:23.148Z,15.00
2017-11-21T08:28:50.544Z,16.30
2017-11-21T08:31:17.950Z,15.30
2017-11-21T08:33:45.383Z,16.30
2017-11-21T08:36:12.778Z,15.80
2017-11-21T08:38:40.189Z,16.60
2017-11-21T08:41:07.595Z,16.37
2017-11-21T08:43:35.013Z,15.10
2017-11-21T08:46:02.415Z,15.97
2017-11-21T08:48:29.834Z,16.20
2017-11-21T08:50:57.311Z,15.53
2017-11-21T08:53:24.701Z,15.87
2017-11-21T08:55:52.118Z,15.70
2017-11-21T08:58:19.514Z,15.90
2017-11-21T09:00:46.975Z,15.80
2017-11-21T09:03:14.368Z,16.60
2017-11-21T09:05:41.792Z,16.33
2017-11-21T09:08:09.196Z,16.60
2017-11-21T09:10:36.599Z,16.50
2017-11-21T09:13:04.000Z,15.73
2017-11-21T09:15:31.416Z,17.40
2017-11-21T09:17:58.831Z,18.10
2017-11-21T09:20:26.224Z,18.63
2017-11-21T09:22:53.644Z,18.43
2017-11-21T09:25:21.051Z,18.63
2017-11-21T09:27:48.763Z,19.50
2017-11-21T09:30:16.182Z,19.03
2017-11-21T09:32:43.603Z,18.77
2017-11-21T09:35:11.012Z,19.37
2017-11-21T09:37:38.423Z,19.93
2017-11-21T09:40:05.840Z,20.37
2017-11-21T09:42:33.239Z,19.90
2017-11-21T09:45:00.645Z,21.57
2017-11-21T09:47:28.048Z,19.40
2017-11-21T09:49:55.459Z,20.33
2017-11-21T09:52:22.853Z,20.00
2017-11-21T09:54:50.302Z,19.70
2017-11-21T09:57:17.710Z,19.47
2017-11-21T09:59:45.119Z,18.93
2017-11-21T10:02:12.534Z,20.07
2017-11-21T10:04:39.920Z,18.73
2017-11-21T10:07:07.347Z,18.80
2017-11-21T10:09:34.768Z,18.30
2017-11-21T10:12:02.184Z,18.90
2017-11-21T10:14:29.607Z,20.37
2017-11-21T10:16:57.039Z,18.63
2017-11-21T10:19:24.420Z,19.23
2017-11-21T10:21:51.838Z,20.03
2017-11-21T10:24:19.275Z,18.67
2017-11-21T10:26:46.685Z,18.60
2017-11-21T10:29:14.095Z,20.50
2017-11-21T10:31:41.507Z,18.83
2017-11-21T10:34:08.943Z,18.97
2017-11-21T10:36:36.368Z,20.50
2017-11-21T10:39:03.821Z,21.07
2017-11-21T10:41:31.220Z,20.27
2017-11-21T10:43:58.656Z,18.97
2017-11-21T10:46:26.068Z,19.43
2017-11-21T10:48:53.486Z,18.53
2017-11-21T10:51:20.884Z,19.10
2017-11-21T10:53:48.311Z,20.07
2017-11-21T10:56:15.736Z,20.93
2017-11-21T10:58:43.183Z,20.63
2017-11-21T11:01:10.635Z,22.20
2017-11-21T11:03:38.056Z,20.70
2017-11-21T11:06:05.973Z,20.40
2017-11-21T11:08:33.419Z,19.30
2017-11-21T11:11:00.817Z,21.27
2017-11-21T11:13:28.280Z,16.57
2017-11-21T11:15:55.735Z,16.10
2017-11-21T11:18:23.139Z,18.17
2017-11-21T11:20:50.536Z,18.03
2017-11-21T11:23:17.963Z,19.37
2017-11-21T11:25:45.400Z,19.37
2017-11-21T11:28:12.792Z,19.60
2017-11-21T11:30:40.199Z,17.20
2017-11-21T11:33:07.596Z,15.57
2017-11-21T11:35:35.011Z,16.20
2017-11-21T11:38:02.453Z,15.63
2017-11-21T11:40:29.877Z,17.23
2017-11-21T11:42:57.295Z,16.30
2017-11-21T11:45:24.727Z,14.37
2017-11-21T11:47:52.176Z,14.70
2017-11-21T11:50:19.597Z,14.73
2017-11-21T11:52:47.033Z,15.33
2017-11-21T11:55:14.451Z,15.33
2017-11-21T11:57:41.880Z,13.27
2017-11-21T12:00:09.302Z,13.57
2017-11-21T12:02:36.727Z,12.20
2017-11-21T12:05:04.147Z,11.67
2017-11-21T12:07:31.583Z,12.53
2017-11-21T12:09:59.020Z,12.60
2017-11-21T12:12:26.443Z,12.77
2017-11-21T12:14:53.896Z,11.80
2017-11-21T12:17:21.344Z,11.00
2017-11-21T12:19:48.752Z,11.90
2017-11-21T12:24:48.843Z,12.30
2017-11-21T12:27:16.300Z,10.90
2017-11-21T12:29:43.707Z,12.50
2017-11-21T12:32:11.109Z,11.70
2017-11-21T12:34:38.540Z,11.97
2017-11-21T12:37:05.951Z,11.73
2017-11-21T12:39:33.393Z,11.93
2017-11-21T12:42:00.790Z,13.33
2017-11-21T12:44:28.205Z,11.50
2017-11-21T12:46:55.626Z,14.80
2017-11-21T12:49:23.028Z,11.20
2017-11-21T12:51:50.426Z,13.20
2017-11-21T12:54:17.841Z,12.10
2017-11-21T12:56:45.298Z,11.50
2017-11-21T12:59:12.689Z,11.33
2017-11-21T13:01:40.083Z,12.00
2017-11-21T13:04:07.504Z,11.80
2017-11-21T13:06:35.259Z,12.03
2017-11-21T13:09:02.686Z,11.60
2017-11-21T13:11:30.121Z,12.07
2017-11-21T13:13:57.522Z,11.03
2017-11-21T13:16:24.916Z,11.80
2017-11-21T13:18:52.339Z,11.43
2017-11-21T13:21:19.735Z,11.20
2017-11-21T13:23:47.131Z,11.93
2017-11-21T13:26:14.540Z,11.83
2017-11-21T13:28:41.936Z,12.00
2017-11-21T13:31:09.336Z,11.50
2017-11-21T13:33:36.770Z,12.23
2017-11-21T13:36:04.171Z,12.57
2017-11-21T13:38:31.571Z,13.27
2017-11-21T13:40:58.976Z,12.97
2017-11-21T13:43:27.065Z,13.07
2017-11-21T13:45:54.461Z,13.37
2017-11-21T13:48:21.871Z,14.03
2017-11-21T13:50:49.271Z,13.33
2017-11-21T13:53:16.668Z,14.43
2017-11-21T13:55:48.892Z,13.03
2017-11-21T13:58:16.292Z,12.50
2017-11-21T14:00:43.714Z,13.17
2017-11-21T14:03:11.124Z,12.30
2017-11-21T14:05:38.520Z,13.07
2017-11-21T14:08:05.919Z,13.90
2017-11-21T14:10:35.942Z,13.40
2017-11-21T14:13:03.346Z,13.70
2017-11-21T14:15:30.741Z,13.80
2017-11-21T14:18:00.008Z,14.00
2017-11-21T14:20:27.435Z,15.60
2017-11-21T14:22:54.847Z,13.73
2017-11-21T14:25:22.270Z,15.20
2017-11-21T14:27:52.995Z,15.67
2017-11-21T14:30:20.392Z,15.37
2017-11-21T14:32:47.795Z,16.20
2017-11-21T14:35:15.198Z,15.43
2017-11-21T14:37:43.279Z,15.33
2017-11-21T14:40:10.977Z,15.37
2017-11-21T14:42:38.371Z,16.83
2017-11-21T14:45:05.769Z,17.13
2017-11-21T14:47:33.185Z,16.03
2017-11-21T14:50:00.584Z,15.83
2017-11-21T14:52:29.346Z,15.57
2017-11-21T14:54:56.755Z,15.40
2017-11-21T14:57:25.930Z,15.80
2017-11-21T14:59:54.851Z,14.20
2017-11-21T15:02:22.869Z,15.60
2017-11-21T15:04:50.268Z,14.80
2017-11-21T15:07:19.092Z,14.40
2017-11-21T15:09:47.140Z,15.30
2017-11-21T15:12:14.563Z,16.00
2017-11-21T15:14:43.140Z,16.90
2017-11-21T15:17:10.548Z,15.47
2017-11-21T15:19:38.003Z,16.10
2017-11-21T15:22:05.423Z,17.37
2017-11-21T15:24:32.839Z,15.50
2017-11-21T15:27:00.249Z,16.80
2017-11-21T15:29:27.653Z,15.90
2017-11-21T15:31:55.093Z,16.27
2017-11-21T15:34:22.505Z,16.07
2017-11-21T15:36:49.911Z,15.93
2017-11-21T15:39:17.317Z,16.00
2017-11-21T15:41:44.725Z,15.60
2017-11-21T15:44:12.151Z,14.13
2017-11-21T15:46:39.548Z,15.27
2017-11-21T15:49:07.547Z,21.23
2017-11-21T15:51:34.982Z,16.07
2017-11-21T15:54:02.452Z,16.20
2017-11-21T15:56:29.922Z,15.00
2017-11-21T15:58:57.330Z,15.27
2017-11-21T16:01:24.746Z,15.10
2017-11-21T16:03:52.140Z,15.20
2017-11-21T16:06:19.536Z,15.83
2017-11-21T16:08:46.943Z,15.47
2017-11-21T16:11:15.376Z,15.53
2017-11-21T16:13:42.779Z,18.40
2017-11-21T16:16:10.213Z,14.00
2017-11-21T16:18:37.615Z,15.23
2017-11-21T16:21:05.060Z,15.27
2017-11-21T16:23:32.483Z,14.70
2017-11-21T16:25:59.897Z,15.30
2017-11-21T16:28:27.291Z,15.87
2017-11-21T16:30:54.712Z,14.80
2017-11-21T16:33:22.112Z,15.47
2017-11-21T16:35:49.499Z,15.63
2017-11-21T16:38:17.375Z,15.20
2017-11-21T16:40:45.844Z,15.10
2017-11-21T16:43:13.244Z,17.67
2017-11-21T16:45:41.274Z,15.37
2017-11-21T16:48:08.685Z,16.07
2017-11-21T16:50:36.945Z,14.77
2017-11-21T16:53:04.369Z,15.70
2017-11-21T16:55:31.775Z,14.70
2017-11-21T16:57:59.170Z,15.00
2017-11-21T17:00:26.604Z,15.63
2017-11-21T17:02:53.999Z,14.30
2017-11-21T17:05:22.044Z,16.07
2017-11-21T17:07:49.472Z,15.20
2017-11-21T17:10:16.875Z,15.67
2017-11-21T17:12:44.315Z,16.13
2017-11-21T17:15:11.706Z,15.27
2017-11-21T17:17:39.119Z,14.70
2017-11-21T17:20:06.514Z,14.00
2017-11-21T17:22:33.906Z,14.60
2017-11-21T17:25:01.327Z,14.97
2017-11-21T17:27:28.742Z,15.50
2017-11-21T17:29:56.152Z,15.63
2017-11-21T17:32:23.584Z,14.80
2017-11-21T17:34:51.047Z,15.97
2017-11-21T17:37:18.472Z,14.23
2017-11-21T17:39:45.860Z,13.97
2017-11-21T17:42:13.278Z,18.07
2017-11-21T17:44:40.704Z,14.87
2017-11-21T17:47:08.118Z,15.93
2017-11-21T17:49:35.515Z,15.33
2017-11-21T17:52:02.926Z,14.57
2017-11-21T17:54:30.338Z,14.53
2017-11-21T17:57:01.046Z,15.60
2017-11-21T17:59:28.471Z,15.43
2017-11-21T18:01:56.953Z,14.67
2017-11-21T18:04:25.002Z,16.10
2017-11-21T18:06:52.467Z,14.53
2017-11-21T18:09:19.864Z,13.80
2017-11-21T18:11:47.260Z,14.37
2017-11-21T18:14:14.667Z,15.60
2017-11-21T18:16:42.099Z,14.77
2017-11-21T18:19:09.521Z,14.77
2017-11-21T18:21:36.933Z,15.13
2017-11-21T18:24:04.326Z,14.93
2017-11-21T18:26:31.739Z,14.13
2017-11-21T18:28:59.147Z,16.67
2017-11-21T18:31:26.550Z,15.40
2017-11-21T18:33:53.939Z,15.93
2017-11-21T18:36:21.363Z,16.73
2017-11-21T18:38:48.768Z,17.57
2017-11-21T18:41:16.168Z,18.40
2017-11-21T18:43:43.600Z,15.93
2017-11-21T18:46:11.010Z,16.53
2017-11-21T18:48:38.395Z,16.17
2017-11-21T18:51:05.795Z,15.93
2017-11-21T18:53:33.194Z,14.73
2017-11-21T18:56:00.602Z,16.60
2017-11-21T18:58:28.027Z,16.20
2017-11-21T19:00:55.428Z,15.90
2017-11-21T19:03:22.827Z,16.40
2017-11-21T19:05:50.247Z,19.87
2017-11-21T19:08:17.652Z,16.37
2017-11-21T19:10:45.092Z,17.20
2017-11-21T19:13:12.496Z,15.50
2017-11-21T19:15:39.906Z,15.80
2017-11-21T19:18:07.317Z,23.43
2017-11-21T19:20:34.716Z,17.07
2017-11-21T19:23:07.819Z,16.20
2017-11-21T19:25:36.211Z,16.00
2017-11-21T19:28:03.603Z,17.03
2017-11-21T19:30:31.552Z,15.30
2017-11-21T19:32:58.985Z,15.93
2017-11-21T19:35:28.255Z,21.03
2017-11-21T19:37:55.669Z,16.23
2017-11-21T19:40:23.084Z,19.73
2017-11-21T19:42:50.482Z,14.90
2017-11-21T19:45:17.940Z,16.53
2017-11-21T19:47:51.226Z,16.03
2017-11-21T19:50:21.683Z,15.23
2017-11-21T19:52:49.098Z,16.63
2017-11-21T19:55:16.522Z,16.27
2017-11-21T19:57:44.615Z,18.03
2017-11-21T20:00:12.011Z,16.10
2017-11-21T20:02:40.707Z,20.37
2017-11-21T20:05:08.793Z,16.10
2017-11-21T20:07:36.243Z,16.93
2017-11-21T20:10:03.679Z,16.30
2017-11-21T20:12:31.792Z,18.03
2017-11-21T20:15:00.027Z,17.00
2017-11-21T20:17:27.528Z,17.40
2017-11-21T20:19:56.463Z,16.40
2017-11-21T20:22:25.088Z,16.63
2017-11-21T20:24:52.503Z,15.17
2017-11-21T20:27:20.915Z,17.10
2017-11-21T20:29:49.420Z,15.70
2017-11-21T20:32:16.851Z,16.50
2017-11-21T20:34:44.894Z,15.57
2017-11-21T20:37:12.390Z,16.80
2017-11-21T20:39:39.857Z,15.80
2017-11-21T20:42:07.247Z,16.07
2017-11-21T20:44:34.683Z,17.30
2017-11-21T20:47:02.111Z,17.10
2017-11-21T20:49:29.510Z,16.93
2017-11-21T20:51:56.963Z,17.70
2017-11-21T20:54:24.378Z,16.23
2017-11-21T20:56:51.779Z,18.37
2017-11-21T20:59:19.170Z,17.33
2017-11-21T21:01:46.579Z,20.10
2017-11-21T21:04:13.976Z,17.80
2017-11-21T21:06:41.380Z,17.90
2017-11-21T21:09:08.792Z,16.63
2017-11-21T21:11:36.487Z,16.60
2017-11-21T21:14:03.879Z,19.43
2017-11-21T21:16:31.300Z,17.33
2017-11-21T21:18:58.691Z,16.60
2017-11-21T21:21:26.091Z,17.83
2017-11-21T21:23:53.496Z,15.97
2017-11-21T21:26:20.909Z,17.43
2017-11-21T21:28:48.288Z,16.53
2017-11-21T21:31:15.697Z,17.00
2017-11-21T21:33:43.084Z,17.87
2017-11-21T21:36:10.488Z,15.90
2017-11-21T21:38:37.907Z,16.20
2017-11-21T21:41:05.299Z,16.90
2017-11-21T21:43:32.695Z,18.50
2017-11-21T21:46:00.100Z,18.00
2017-11-21T21:48:27.491Z,18.63
2017-11-21T21:50:54.883Z,16.77
2017-11-21T21:53:22.304Z,15.90
2017-11-21T21:55:49.701Z,16.13
2017-11-21T21:58:17.083Z,16.67
2017-11-21T22:00:44.511Z,15.87
2017-11-21T22:03:11.900Z,17.53
2017-11-21T22:05:39.299Z,15.93
2017-11-21T22:08:06.720Z,15.90
2017-11-21T22:10:34.106Z,16.57
2017-11-21T22:13:01.498Z,15.40
2017-11-21T22:15:28.919Z,17.07
2017-11-21T22:17:56.311Z,17.20
2017-11-21T22:20:23.711Z,15.93
2017-11-21T22:22:51.120Z,16.43
2017-11-21T22:25:18.507Z,16.70
2017-11-21T22:27:45.897Z,16.80
2017-11-21T22:30:13.308Z,16.27
2017-11-21T22:32:40.710Z,16.10
2017-11-21T22:35:08.100Z,16.70
2017-11-21T22:37:35.520Z,16.50
2017-11-21T22:40:02.910Z,15.80
2017-11-21T22:42:30.306Z,17.43
2017-11-21T22:44:57.716Z,17.37
2017-11-21T22:47:25.112Z,16.57
2017-11-21T22:49:52.503Z,17.17
2017-11-21T22:52:19.903Z,16.70
2017-11-21T22:54:47.306Z,17.73
2017-11-21T22:57:14.695Z,16.80
2017-11-21T22:59:42.110Z,16.97
2017-11-21T23:02:09.822Z,17.30
2017-11-21T23:04:37.221Z,18.07
2017-11-21T23:07:04.606Z,17.53
2017-11-21T23:09:32.001Z,18.37
2017-11-21T23:11:59.393Z,17.20
2017-11-21T23:14:26.809Z,18.27
2017-11-21T23:16:54.191Z,18.87
2017-11-21T23:19:21.578Z,17.43
2017-11-21T23:21:48.988Z,17.30
2017-11-21T23:24:16.380Z,18.60
2017-11-21T23:26:43.767Z,17.93
2017-11-21T23:29:11.184Z,18.30
2017-11-21T23:31:38.571Z,16.40
2017-11-21T23:34:05.965Z,17.60
2017-11-21T23:36:33.366Z,17.90
2017-11-21T23:39:00.752Z,16.63
2017-11-21T23:41:28.143Z,18.70
2017-11-21T23:43:55.552Z,18.13
2017-11-21T23:46:22.947Z,18.00
2017-11-21T23:48:50.344Z,18.80
2017-11-21T23:51:17.747Z,18.70
2017-11-21T23:53:45.134Z,18.77
2017-11-21T23:56:12.531Z,17.97
2017-11-21T23:58:39.947Z,18.40
